sensor_id;sensor_type;location;lat;lon;timestamp;pressure;altitude;pressure_sealevel;temperature;humidity
29121;BME280;16191;49.548;8.658;2023-04-29T00:01:00;100095.09;;;13.93;100.00
29121;BME280;16191;49.548;8.658;2023-04-29T00:03:29;100096.00;;;13.92;100.00
29121;BME280;16191;49.548;8.658;2023-04-29T00:05:58;100098.81;;;13.89;100.00
29121;BME280;16191;49.548;8.658;2023-04-29T00:08:25;100104.72;;;13.93;100.00
29121;BME280;16191;49.548;8.658;2023-04-29T00:10:51;100095.09;;;13.93;100.00
29121;BME280;16191;49.548;8.658;2023-04-29T00:13:18;100102.19;;;13.91;100.00
29121;BME280;16191;49.548;8.658;2023-04-29T00:15:45;100099.47;;;13.93;100.00
29121;BME280;16191;49.548;8.658;2023-04-29T00:18:11;100098.56;;;13.94;100.00
29121;BME280;16191;49.548;8.658;2023-04-29T00:20:39;100098.25;;;13.84;100.00
29121;BME280;16191;49.548;8.658;2023-04-29T00:23:05;100104.22;;;13.86;100.00
29121;BME280;16191;49.548;8.658;2023-04-29T00:25:33;100104.06;;;13.89;100.00
29121;BME280;16191;49.548;8.658;2023-04-29T00:28:00;100108.53;;;13.87;100.00
29121;BME280;16191;49.548;8.658;2023-04-29T00:30:27;100109.59;;;13.85;100.00
29121;BME280;16191;49.548;8.658;2023-04-29T00:32:54;100114.63;;;13.88;100.00
29121;BME280;16191;49.548;8.658;2023-04-29T00:35:21;100115.31;;;13.91;100.00
29121;BME280;16191;49.548;8.658;2023-04-29T00:37:48;100116.41;;;13.87;100.00
29121;BME280;16191;49.548;8.658;2023-04-29T00:40:14;100114.47;;;13.91;100.00
29121;BME280;16191;49.548;8.658;2023-04-29T00:42:42;100118.00;;;13.90;100.00
29121;BME280;16191;49.548;8.658;2023-04-29T00:45:10;100118.63;;;13.79;100.00
29121;BME280;16191;49.548;8.658;2023-04-29T00:47:37;100117.34;;;13.86;100.00
29121;BME280;16191;49.548;8.658;2023-04-29T00:50:05;100121.66;;;13.87;100.00
29121;BME280;16191;49.548;8.658;2023-04-29T00:52:33;100118.19;;;13.87;100.00
29121;BME280;16191;49.548;8.658;2023-04-29T00:55:00;100125.88;;;13.90;100.00
29121;BME280;16191;49.548;8.658;2023-04-29T00:57:28;100129.72;;;13.84;100.00
29121;BME280;16191;49.548;8.658;2023-04-29T00:59:59;100131.41;;;13.85;100.00
29121;BME280;16191;49.548;8.658;2023-04-29T01:02:26;100135.81;;;13.85;100.00
29121;BME280;16191;49.548;8.658;2023-04-29T01:04:53;100132.44;;;13.83;100.00
29121;BME280;16191;49.548;8.658;2023-04-29T01:10:03;100128.88;;;13.84;100.00
29121;BME280;16191;49.548;8.658;2023-04-29T01:12:53;100125.91;;;13.74;100.00
29121;BME280;16191;49.548;8.658;2023-04-29T01:15:53;100127.84;;;13.70;100.00
29121;BME280;16191;49.548;8.658;2023-04-29T01:18:39;100133.19;;;13.69;100.00
29121;BME280;16191;49.548;8.658;2023-04-29T01:21:06;100126.31;;;13.66;100.00
29121;BME280;16191;49.548;8.658;2023-04-29T01:23:33;100126.16;;;13.69;100.00
29121;BME280;16191;49.548;8.658;2023-04-29T01:25:59;100130.81;;;13.64;100.00
29121;BME280;16191;49.548;8.658;2023-04-29T01:28:55;100130.72;;;13.66;100.00
29121;BME280;16191;49.548;8.658;2023-04-29T01:31:30;100122.38;;;13.59;100.00
29121;BME280;16191;49.548;8.658;2023-04-29T01:34:13;100126.69;;;13.60;100.00
29121;BME280;16191;49.548;8.658;2023-04-29T01:45:38;100118.38;;;13.52;100.00
29121;BME280;16191;49.548;8.658;2023-04-29T01:48:27;100120.47;;;13.46;100.00
29121;BME280;16191;49.548;8.658;2023-04-29T01:51:14;100121.59;;;13.42;100.00
29121;BME280;16191;49.548;8.658;2023-04-29T01:54:01;100124.88;;;13.45;100.00
29121;BME280;16191;49.548;8.658;2023-04-29T01:56:28;100131.91;;;13.45;100.00
29121;BME280;16191;49.548;8.658;2023-04-29T01:59:13;100138.28;;;13.23;100.00
29121;BME280;16191;49.548;8.658;2023-04-29T02:01:58;100148.19;;;13.18;100.00
29121;BME280;16191;49.548;8.658;2023-04-29T02:04:25;100149.63;;;13.24;100.00
29121;BME280;16191;49.548;8.658;2023-04-29T02:06:53;100145.84;;;13.29;100.00
29121;BME280;16191;49.548;8.658;2023-04-29T02:09:19;100147.59;;;13.29;100.00
29121;BME280;16191;49.548;8.658;2023-04-29T02:11:51;100148.13;;;13.35;100.00
29121;BME280;16191;49.548;8.658;2023-04-29T02:14:18;100151.59;;;13.36;100.00
29121;BME280;16191;49.548;8.658;2023-04-29T02:16:44;100156.69;;;13.39;100.00
29121;BME280;16191;49.548;8.658;2023-04-29T02:19:12;100151.38;;;13.41;100.00
29121;BME280;16191;49.548;8.658;2023-04-29T02:21:39;100160.16;;;13.40;100.00
29121;BME280;16191;49.548;8.658;2023-04-29T02:24:05;100153.22;;;13.38;100.00
29121;BME280;16191;49.548;8.658;2023-04-29T02:26:32;100159.47;;;13.36;100.00
29121;BME280;16191;49.548;8.658;2023-04-29T02:28:59;100165.41;;;13.40;100.00
29121;BME280;16191;49.548;8.658;2023-04-29T02:31:26;100170.63;;;13.40;100.00
29121;BME280;16191;49.548;8.658;2023-04-29T02:33:54;100171.41;;;13.42;100.00
29121;BME280;16191;49.548;8.658;2023-04-29T02:36:21;100165.72;;;13.33;100.00
29121;BME280;16191;49.548;8.658;2023-04-29T02:38:50;100162.31;;;13.31;100.00
29121;BME280;16191;49.548;8.658;2023-04-29T02:41:19;100170.28;;;13.30;100.00
29121;BME280;16191;49.548;8.658;2023-04-29T02:43:46;100169.66;;;13.25;100.00
29121;BME280;16191;49.548;8.658;2023-04-29T02:46:14;100174.75;;;13.28;100.00
29121;BME280;16191;49.548;8.658;2023-04-29T02:48:42;100169.66;;;13.25;100.00
29121;BME280;16191;49.548;8.658;2023-04-29T02:51:08;100172.69;;;13.17;100.00
29121;BME280;16191;49.548;8.658;2023-04-29T02:53:36;100169.66;;;13.08;100.00
29121;BME280;16191;49.548;8.658;2023-04-29T02:56:02;100170.59;;;13.07;100.00
29121;BME280;16191;49.548;8.658;2023-04-29T02:58:30;100158.97;;;13.12;100.00
29121;BME280;16191;49.548;8.658;2023-04-29T03:00:56;100164.19;;;13.12;100.00
29121;BME280;16191;49.548;8.658;2023-04-29T03:03:23;100162.66;;;13.08;100.00
29121;BME280;16191;49.548;8.658;2023-04-29T03:05:50;100160.97;;;13.07;100.00
29121;BME280;16191;49.548;8.658;2023-04-29T03:08:17;100151.66;;;13.01;100.00
29121;BME280;16191;49.548;8.658;2023-04-29T03:10:45;100156.47;;;12.93;100.00
29121;BME280;16191;49.548;8.658;2023-04-29T03:13:12;100157.06;;;12.98;100.00
29121;BME280;16191;49.548;8.658;2023-04-29T03:15:39;100150.84;;;12.84;100.00
29121;BME280;16191;49.548;8.658;2023-04-29T03:18:06;100143.81;;;12.84;100.00
29121;BME280;16191;49.548;8.658;2023-04-29T03:20:33;100154.47;;;12.81;100.00
29121;BME280;16191;49.548;8.658;2023-04-29T03:23:02;100157.00;;;12.83;100.00
29121;BME280;16191;49.548;8.658;2023-04-29T03:25:29;100150.75;;;12.85;100.00
29121;BME280;16191;49.548;8.658;2023-04-29T03:27:56;100149.28;;;12.80;100.00
29121;BME280;16191;49.548;8.658;2023-04-29T03:30:23;100148.38;;;12.81;100.00
29121;BME280;16191;49.548;8.658;2023-04-29T03:32:53;100141.50;;;12.78;100.00
29121;BME280;16191;49.548;8.658;2023-04-29T03:35:20;100152.47;;;12.69;100.00
29121;BME280;16191;49.548;8.658;2023-04-29T03:38:07;100155.63;;;12.76;100.00
29121;BME280;16191;49.548;8.658;2023-04-29T03:40:35;100147.31;;;12.67;100.00
29121;BME280;16191;49.548;8.658;2023-04-29T03:43:02;100147.84;;;12.57;100.00
29121;BME280;16191;49.548;8.658;2023-04-29T03:45:29;100140.75;;;12.59;100.00
29121;BME280;16191;49.548;8.658;2023-04-29T03:47:56;100145.00;;;12.61;100.00
29121;BME280;16191;49.548;8.658;2023-04-29T03:50:23;100148.41;;;12.63;100.00
29121;BME280;16191;49.548;8.658;2023-04-29T03:52:51;100149.31;;;12.62;100.00
29121;BME280;16191;49.548;8.658;2023-04-29T03:55:18;100157.25;;;12.61;100.00
29121;BME280;16191;49.548;8.658;2023-04-29T03:57:46;100155.63;;;12.58;100.00
29121;BME280;16191;49.548;8.658;2023-04-29T04:00:14;100156.47;;;12.59;100.00
29121;BME280;16191;49.548;8.658;2023-04-29T04:02:49;100150.38;;;12.58;100.00
29121;BME280;16191;49.548;8.658;2023-04-29T04:05:16;100154.69;;;12.59;100.00
29121;BME280;16191;49.548;8.658;2023-04-29T04:07:51;100156.72;;;12.54;100.00
29121;BME280;16191;49.548;8.658;2023-04-29T04:10:32;100160.84;;;12.58;100.00
29121;BME280;16191;49.548;8.658;2023-04-29T04:13:02;100160.63;;;12.63;100.00
29121;BME280;16191;49.548;8.658;2023-04-29T04:15:30;100159.88;;;12.61;100.00
29121;BME280;16191;49.548;8.658;2023-04-29T04:17:57;100162.41;;;12.62;100.00
29121;BME280;16191;49.548;8.658;2023-04-29T04:20:24;100163.66;;;12.55;100.00
29121;BME280;16191;49.548;8.658;2023-04-29T04:22:51;100167.94;;;12.56;100.00
29121;BME280;16191;49.548;8.658;2023-04-29T04:25:22;100179.50;;;12.52;100.00
29121;BME280;16191;49.548;8.658;2023-04-29T04:27:50;100181.03;;;12.56;100.00
29121;BME280;16191;49.548;8.658;2023-04-29T04:30:37;100183.66;;;12.56;100.00
29121;BME280;16191;49.548;8.658;2023-04-29T04:33:04;100177.50;;;12.57;100.00
29121;BME280;16191;49.548;8.658;2023-04-29T04:35:31;100185.41;;;12.56;100.00
29121;BME280;16191;49.548;8.658;2023-04-29T04:37:58;100189.13;;;12.52;100.00
29121;BME280;16191;49.548;8.658;2023-04-29T04:40:25;100191.75;;;12.52;100.00
29121;BME280;16191;49.548;8.658;2023-04-29T04:43:09;100201.97;;;12.56;100.00
29121;BME280;16191;49.548;8.658;2023-04-29T04:45:39;100198.50;;;12.56;100.00
29121;BME280;16191;49.548;8.658;2023-04-29T04:48:06;100199.53;;;12.53;100.00
29121;BME280;16191;49.548;8.658;2023-04-29T04:50:35;100209.16;;;12.53;100.00
29121;BME280;16191;49.548;8.658;2023-04-29T04:53:02;100200.53;;;12.51;100.00
29121;BME280;16191;49.548;8.658;2023-04-29T04:55:41;100196.84;;;12.55;100.00
29121;BME280;16191;49.548;8.658;2023-04-29T04:58:08;100201.88;;;12.58;100.00
29121;BME280;16191;49.548;8.658;2023-04-29T05:00:35;100205.22;;;12.61;100.00
29121;BME280;16191;49.548;8.658;2023-04-29T05:03:02;100206.13;;;12.60;100.00
29121;BME280;16191;49.548;8.658;2023-04-29T05:05:29;100216.09;;;12.54;100.00
29121;BME280;16191;49.548;8.658;2023-04-29T05:07:55;100218.69;;;12.54;100.00
29121;BME280;16191;49.548;8.658;2023-04-29T05:10:29;100219.63;;;12.53;100.00
29121;BME280;16191;49.548;8.658;2023-04-29T05:12:59;100223.84;;;12.55;100.00
29121;BME280;16191;49.548;8.658;2023-04-29T05:15:26;100230.75;;;12.56;100.00
29121;BME280;16191;49.548;8.658;2023-04-29T05:17:55;100227.63;;;12.50;100.00
29121;BME280;16191;49.548;8.658;2023-04-29T05:20:23;100226.78;;;12.49;100.00
29121;BME280;16191;49.548;8.658;2023-04-29T05:22:50;100232.72;;;12.53;100.00
29121;BME280;16191;49.548;8.658;2023-04-29T05:25:18;100230.75;;;12.56;100.00
29121;BME280;16191;49.548;8.658;2023-04-29T05:27:44;100235.16;;;12.56;100.00
29121;BME280;16191;49.548;8.658;2023-04-29T05:30:14;100245.63;;;12.56;100.00
29121;BME280;16191;49.548;8.658;2023-04-29T05:32:41;100236.94;;;12.55;100.00
29121;BME280;16191;49.548;8.658;2023-04-29T05:35:12;100241.09;;;12.59;100.00
29121;BME280;16191;49.548;8.658;2023-04-29T05:37:38;100255.50;;;12.51;100.00
29121;BME280;16191;49.548;8.658;2023-04-29T05:40:25;100255.00;;;12.43;100.00
29121;BME280;16191;49.548;8.658;2023-04-29T05:43:00;100257.19;;;12.52;100.00
29121;BME280;16191;49.548;8.658;2023-04-29T05:45:27;100262.63;;;12.47;100.00
29121;BME280;16191;49.548;8.658;2023-04-29T05:47:54;100263.34;;;12.51;100.00
29121;BME280;16191;49.548;8.658;2023-04-29T05:50:21;100263.13;;;12.55;100.00
29121;BME280;16191;49.548;8.658;2023-04-29T05:52:48;100263.03;;;12.57;100.00
29121;BME280;16191;49.548;8.658;2023-04-29T05:55:15;100261.19;;;12.59;100.00
29121;BME280;16191;49.548;8.658;2023-04-29T05:57:41;100273.41;;;12.58;100.00
29121;BME280;16191;49.548;8.658;2023-04-29T06:00:08;100271.78;;;12.56;100.00
29121;BME280;16191;49.548;8.658;2023-04-29T06:02:44;100276.81;;;12.60;100.00
29121;BME280;16191;49.548;8.658;2023-04-29T06:05:25;100279.75;;;12.54;100.00
29121;BME280;16191;49.548;8.658;2023-04-29T06:08:08;100280.09;;;12.47;100.00
29121;BME280;16191;49.548;8.658;2023-04-29T06:10:48;100284.00;;;12.38;100.00
29121;BME280;16191;49.548;8.658;2023-04-29T06:13:17;100287.81;;;12.50;100.00
29121;BME280;16191;49.548;8.658;2023-04-29T06:15:44;100290.13;;;12.56;100.00
29121;BME280;16191;49.548;8.658;2023-04-29T06:18:12;100288.44;;;12.55;100.00
29121;BME280;16191;49.548;8.658;2023-04-29T06:20:39;100287.25;;;12.43;100.00
29121;BME280;16191;49.548;8.658;2023-04-29T06:23:05;100288.81;;;12.47;100.00
29121;BME280;16191;49.548;8.658;2023-04-29T06:25:33;100295.94;;;12.44;100.00
29121;BME280;16191;49.548;8.658;2023-04-29T06:28:03;100299.75;;;12.55;100.00
29121;BME280;16191;49.548;8.658;2023-04-29T06:30:30;100298.63;;;12.42;100.00
29121;BME280;16191;49.548;8.658;2023-04-29T06:32:57;100307.63;;;12.55;100.00
29121;BME280;16191;49.548;8.658;2023-04-29T06:35:24;100311.31;;;12.51;100.00
29121;BME280;16191;49.548;8.658;2023-04-29T06:38:06;100310.13;;;12.57;100.00
29121;BME280;16191;49.548;8.658;2023-04-29T06:40:54;100316.22;;;12.57;100.00
29121;BME280;16191;49.548;8.658;2023-04-29T06:43:41;100318.47;;;12.65;100.00
29121;BME280;16191;49.548;8.658;2023-04-29T06:46:33;100315.22;;;12.60;100.00
29121;BME280;16191;49.548;8.658;2023-04-29T06:49:03;100325.69;;;12.60;100.00
29121;BME280;16191;49.548;8.658;2023-04-29T06:51:31;100327.53;;;12.58;100.00
29121;BME280;16191;49.548;8.658;2023-04-29T06:53:58;100323.56;;;12.68;100.00
29121;BME280;16191;49.548;8.658;2023-04-29T06:56:25;100331.91;;;12.76;100.00
29121;BME280;16191;49.548;8.658;2023-04-29T06:58:51;100330.16;;;12.77;100.00
29121;BME280;16191;49.548;8.658;2023-04-29T07:01:18;100325.47;;;12.64;100.00
29121;BME280;16191;49.548;8.658;2023-04-29T07:03:45;100339.66;;;12.78;100.00
29121;BME280;16191;49.548;8.658;2023-04-29T07:06:11;100340.44;;;12.80;100.00
29121;BME280;16191;49.548;8.658;2023-04-29T07:08:38;100341.22;;;12.82;100.00
29121;BME280;16191;49.548;8.658;2023-04-29T07:11:05;100343.31;;;12.75;100.00
29121;BME280;16191;49.548;8.658;2023-04-29T07:13:31;100350.47;;;12.89;100.00
29121;BME280;16191;49.548;8.658;2023-04-29T07:15:58;100354.25;;;12.83;100.00
29121;BME280;16191;49.548;8.658;2023-04-29T07:18:25;100355.38;;;12.96;100.00
29121;BME280;16191;49.548;8.658;2023-04-29T07:20:52;100361.31;;;12.81;100.00
29121;BME280;16191;49.548;8.658;2023-04-29T07:23:21;100361.97;;;12.86;100.00
29121;BME280;16191;49.548;8.658;2023-04-29T07:25:47;100370.66;;;12.87;100.00
29121;BME280;16191;49.548;8.658;2023-04-29T07:28:14;100369.94;;;12.83;100.00
29121;BME280;16191;49.548;8.658;2023-04-29T07:30:40;100373.34;;;12.85;100.00
29121;BME280;16191;49.548;8.658;2023-04-29T07:33:07;100373.09;;;12.73;100.00
29121;BME280;16191;49.548;8.658;2023-04-29T07:35:34;100378.28;;;12.74;100.00
29121;BME280;16191;49.548;8.658;2023-04-29T07:38:01;100382.56;;;12.56;100.00
29121;BME280;16191;49.548;8.658;2023-04-29T07:40:29;100375.56;;;12.57;100.00
29121;BME280;16191;49.548;8.658;2023-04-29T07:42:56;100376.91;;;12.65;100.00
29121;BME280;16191;49.548;8.658;2023-04-29T07:45:23;100375.81;;;12.88;100.00
29121;BME280;16191;49.548;8.658;2023-04-29T07:47:50;100374.16;;;13.04;100.00
29121;BME280;16191;49.548;8.658;2023-04-29T07:50:16;100384.19;;;12.96;100.00
29121;BME280;16191;49.548;8.658;2023-04-29T07:52:43;100379.50;;;12.84;100.00
29121;BME280;16191;49.548;8.658;2023-04-29T07:55:10;100380.16;;;13.07;100.00
29121;BME280;16191;49.548;8.658;2023-04-29T07:57:36;100375.44;;;13.32;100.00
29121;BME280;16191;49.548;8.658;2023-04-29T08:00:04;100380.47;;;13.19;100.00
29121;BME280;16191;49.548;8.658;2023-04-29T08:02:39;100383.09;;;13.19;100.00
29121;BME280;16191;49.548;8.658;2023-04-29T08:05:08;100391.72;;;13.38;100.00
29121;BME280;16191;49.548;8.658;2023-04-29T08:07:35;100394.03;;;13.45;100.00
29121;BME280;16191;49.548;8.658;2023-04-29T08:10:01;100401.44;;;13.36;100.00
29121;BME280;16191;49.548;8.658;2023-04-29T08:12:28;100394.19;;;13.42;100.00
29121;BME280;16191;49.548;8.658;2023-04-29T08:14:56;100398.59;;;13.41;100.00
29121;BME280;16191;49.548;8.658;2023-04-29T08:17:23;100401.19;;;13.24;100.00
29121;BME280;16191;49.548;8.658;2023-04-29T08:19:49;100403.56;;;13.28;100.00
29121;BME280;16191;49.548;8.658;2023-04-29T08:22:16;100401.31;;;13.21;100.00
29121;BME280;16191;49.548;8.658;2023-04-29T08:24:42;100406.34;;;13.25;100.00
29121;BME280;16191;49.548;8.658;2023-04-29T08:27:10;100408.91;;;13.44;100.00
29121;BME280;16191;49.548;8.658;2023-04-29T08:29:37;100410.59;;;13.45;100.00
29121;BME280;16191;49.548;8.658;2023-04-29T08:32:04;100411.00;;;13.37;100.00
29121;BME280;16191;49.548;8.658;2023-04-29T08:34:31;100412.84;;;13.53;100.00
29121;BME280;16191;49.548;8.658;2023-04-29T08:36:59;100422.34;;;13.55;100.00
29121;BME280;16191;49.548;8.658;2023-04-29T08:39:27;100414.91;;;13.46;100.00
29121;BME280;16191;49.548;8.658;2023-04-29T08:41:58;100414.13;;;13.44;100.00
29121;BME280;16191;49.548;8.658;2023-04-29T08:44:25;100416.75;;;13.27;100.00
29121;BME280;16191;49.548;8.658;2023-04-29T08:46:53;100421.06;;;13.45;100.00
29121;BME280;16191;49.548;8.658;2023-04-29T08:49:19;100420.63;;;13.37;100.00
29121;BME280;16191;49.548;8.658;2023-04-29T08:51:49;100419.78;;;13.36;100.00
29121;BME280;16191;49.548;8.658;2023-04-29T08:54:17;100420.63;;;13.37;100.00
29121;BME280;16191;49.548;8.658;2023-04-29T08:56:45;100423.31;;;13.53;100.00
29121;BME280;16191;49.548;8.658;2023-04-29T08:59:16;100426.41;;;13.78;100.00
29121;BME280;16191;49.548;8.658;2023-04-29T09:01:43;100424.91;;;13.90;100.00
29121;BME280;16191;49.548;8.658;2023-04-29T09:04:33;100425.63;;;13.93;100.00
29121;BME280;16191;49.548;8.658;2023-04-29T09:07:04;100442.34;;;13.91;100.00
29121;BME280;16191;49.548;8.658;2023-04-29T09:09:32;100442.19;;;13.94;100.00
29121;BME280;16191;49.548;8.658;2023-04-29T09:11:59;100435.50;;;14.05;100.00
29121;BME280;16191;49.548;8.658;2023-04-29T09:14:27;100428.66;;;14.19;100.00
29121;BME280;16191;49.548;8.658;2023-04-29T09:16:55;100426.50;;;14.27;100.00
29121;BME280;16191;49.548;8.658;2023-04-29T09:19:33;100436.66;;;14.00;100.00
29121;BME280;16191;49.548;8.658;2023-04-29T09:22:03;100438.34;;;14.01;100.00
29121;BME280;16191;49.548;8.658;2023-04-29T09:24:32;100440.59;;;13.91;100.00
29121;BME280;16191;49.548;8.658;2023-04-29T09:26:59;100441.16;;;14.14;100.00
29121;BME280;16191;49.548;8.658;2023-04-29T09:29:26;100441.91;;;14.00;100.00
29121;BME280;16191;49.548;8.658;2023-04-29T09:31:53;100439.81;;;14.06;100.00
29121;BME280;16191;49.548;8.658;2023-04-29T09:34:34;100445.91;;;14.07;100.00
29121;BME280;16191;49.548;8.658;2023-04-29T09:37:02;100435.41;;;14.07;100.00
29121;BME280;16191;49.548;8.658;2023-04-29T09:39:38;100437.38;;;14.19;100.00
29121;BME280;16191;49.548;8.658;2023-04-29T09:42:05;100446.50;;;14.12;100.00
29121;BME280;16191;49.548;8.658;2023-04-29T09:44:33;100450.78;;;14.30;100.00
29121;BME280;16191;49.548;8.658;2023-04-29T09:47:05;100455.72;;;14.03;100.00
29121;BME280;16191;49.548;8.658;2023-04-29T09:49:37;100447.63;;;14.24;100.00
29121;BME280;16191;49.548;8.658;2023-04-29T09:52:08;100448.84;;;14.34;100.00
29121;BME280;16191;49.548;8.658;2023-04-29T09:54:37;100449.00;;;14.31;100.00
29121;BME280;16191;49.548;8.658;2023-04-29T09:57:06;100448.91;;;14.50;100.00
29121;BME280;16191;49.548;8.658;2023-04-29T09:59:37;100449.66;;;14.52;100.00
29121;BME280;16191;49.548;8.658;2023-04-29T10:02:16;100457.47;;;14.36;100.00
29121;BME280;16191;49.548;8.658;2023-04-29T10:04:52;100453.31;;;14.49;100.00
29121;BME280;16191;49.548;8.658;2023-04-29T10:07:20;100461.66;;;14.40;100.00
29121;BME280;16191;49.548;8.658;2023-04-29T10:09:47;100458.47;;;14.51;100.00
29121;BME280;16191;49.548;8.658;2023-04-29T10:12:19;100453.16;;;14.68;100.00
29121;BME280;16191;49.548;8.658;2023-04-29T10:14:51;100458.06;;;14.74;100.00
29121;BME280;16191;49.548;8.658;2023-04-29T10:17:34;100457.91;;;14.77;100.00
29121;BME280;16191;49.548;8.658;2023-04-29T10:20:04;100463.94;;;14.79;100.00
29121;BME280;16191;49.548;8.658;2023-04-29T10:22:39;100467.19;;;14.51;100.00
29121;BME280;16191;49.548;8.658;2023-04-29T10:25:09;100467.72;;;14.58;100.00
29121;BME280;16191;49.548;8.658;2023-04-29T10:27:38;100457.56;;;14.83;100.00
29121;BME280;16191;49.548;8.658;2023-04-29T10:30:06;100458.88;;;14.92;100.00
29121;BME280;16191;49.548;8.658;2023-04-29T10:32:35;100464.16;;;15.22;100.00
29121;BME280;16191;49.548;8.658;2023-04-29T10:35:08;100461.72;;;15.03;100.00
29121;BME280;16191;49.548;8.658;2023-04-29T10:37:36;100462.31;;;15.08;100.00
29121;BME280;16191;49.548;8.658;2023-04-29T10:40:10;100458.50;;;15.14;100.00
29121;BME280;16191;49.548;8.658;2023-04-29T10:45:23;100456.72;;;15.30;100.00
29121;BME280;16191;49.548;8.658;2023-04-29T10:50:29;100458.78;;;15.39;100.00
29121;BME280;16191;49.548;8.658;2023-04-29T10:52:56;100462.72;;;15.32;100.00
29121;BME280;16191;49.548;8.658;2023-04-29T10:55:23;100458.59;;;14.81;100.00
29121;BME280;16191;49.548;8.658;2023-04-29T10:57:54;100465.34;;;15.32;100.00
29121;BME280;16191;49.548;8.658;2023-04-29T11:00:28;100465.69;;;15.26;100.00
29121;BME280;16191;49.548;8.658;2023-04-29T11:02:56;100462.28;;;15.39;100.00
29121;BME280;16191;49.548;8.658;2023-04-29T11:05:32;100462.78;;;15.46;100.00
29121;BME280;16191;49.548;8.658;2023-04-29T11:08:12;100467.44;;;15.41;100.00
29121;BME280;16191;49.548;8.658;2023-04-29T11:10:42;100467.94;;;15.63;100.00
29121;BME280;16191;49.548;8.658;2023-04-29T11:13:28;100470.06;;;15.87;100.00
29121;BME280;16191;49.548;8.658;2023-04-29T11:16:09;100460.13;;;15.92;100.00
29121;BME280;16191;49.548;8.658;2023-04-29T11:19:08;100458.91;;;15.97;100.00
29121;BME280;16191;49.548;8.658;2023-04-29T11:21:35;100456.38;;;15.96;100.00
29121;BME280;16191;49.548;8.658;2023-04-29T11:24:03;100458.13;;;15.81;100.00
29121;BME280;16191;49.548;8.658;2023-04-29T11:26:35;100457.19;;;15.82;100.00
29121;BME280;16191;49.548;8.658;2023-04-29T11:29:04;100464.28;;;15.96;100.00
29121;BME280;16191;49.548;8.658;2023-04-29T11:31:31;100464.94;;;15.99;100.00
29121;BME280;16191;49.548;8.658;2023-04-29T11:33:59;100462.72;;;15.77;100.00
29121;BME280;16191;49.548;8.658;2023-04-29T11:36:26;100462.13;;;15.58;100.00
29121;BME280;16191;49.548;8.658;2023-04-29T11:38:55;100472.75;;;15.71;100.00
29121;BME280;16191;49.548;8.658;2023-04-29T11:41:22;100469.53;;;15.66;100.00
29121;BME280;16191;49.548;8.658;2023-04-29T11:43:55;100468.47;;;15.38;100.00
29121;BME280;16191;49.548;8.658;2023-04-29T11:46:24;100467.75;;;15.66;100.00
29121;BME280;16191;49.548;8.658;2023-04-29T11:48:56;100469.16;;;15.58;100.00
29121;BME280;16191;49.548;8.658;2023-04-29T11:51:23;100473.72;;;15.54;100.00
29121;BME280;16191;49.548;8.658;2023-04-29T11:53:50;100468.59;;;15.37;100.00
29121;BME280;16191;49.548;8.658;2023-04-29T11:56:20;100470.75;;;15.90;100.00
29121;BME280;16191;49.548;8.658;2023-04-29T11:58:48;100475.81;;;15.79;100.00
29121;BME280;16191;49.548;8.658;2023-04-29T12:01:15;100471.06;;;16.14;100.00
29121;BME280;16191;49.548;8.658;2023-04-29T12:03:42;100478.28;;;15.66;100.00
29121;BME280;16191;49.548;8.658;2023-04-29T12:06:09;100487.88;;;15.67;100.00
29121;BME280;16191;49.548;8.658;2023-04-29T12:08:36;100479.28;;;15.80;100.00
29121;BME280;16191;49.548;8.658;2023-04-29T12:11:05;100484.38;;;15.97;100.00
29121;BME280;16191;49.548;8.658;2023-04-29T12:13:33;100480.66;;;16.01;100.00
29121;BME280;16191;49.548;8.658;2023-04-29T12:16:03;100482.19;;;15.89;100.00
29121;BME280;16191;49.548;8.658;2023-04-29T12:18:31;100487.06;;;16.39;99.61
29121;BME280;16191;49.548;8.658;2023-04-29T12:20:58;100483.41;;;16.56;96.47
29121;BME280;16191;49.548;8.658;2023-04-29T12:23:24;100484.81;;;16.62;100.00
29121;BME280;16191;49.548;8.658;2023-04-29T12:25:56;100479.41;;;16.06;97.87
29121;BME280;16191;49.548;8.658;2023-04-29T12:28:24;100486.94;;;16.27;99.47
29121;BME280;16191;49.548;8.658;2023-04-29T12:30:52;100485.75;;;16.32;99.18
29121;BME280;16191;49.548;8.658;2023-04-29T12:33:23;100486.50;;;16.63;100.00
29121;BME280;16191;49.548;8.658;2023-04-29T12:35:51;100498.94;;;16.75;98.41
29121;BME280;16191;49.548;8.658;2023-04-29T12:38:26;100489.44;;;16.72;99.95
29121;BME280;16191;49.548;8.658;2023-04-29T12:40:54;100483.84;;;16.91;95.39
29121;BME280;16191;49.548;8.658;2023-04-29T12:43:31;100480.31;;;17.19;87.85
29121;BME280;16191;49.548;8.658;2023-04-29T12:46:03;100488.94;;;16.37;89.93
29121;BME280;16191;49.548;8.658;2023-04-29T12:48:35;100500.16;;;16.69;91.91
29121;BME280;16191;49.548;8.658;2023-04-29T12:51:08;100490.34;;;17.00;94.02
29121;BME280;16191;49.548;8.658;2023-04-29T12:53:35;100487.91;;;16.97;92.62
29121;BME280;16191;49.548;8.658;2023-04-29T12:56:02;100492.19;;;17.12;90.51
29121;BME280;16191;49.548;8.658;2023-04-29T12:58:29;100494.72;;;17.13;92.22
29121;BME280;16191;49.548;8.658;2023-04-29T13:00:56;100491.50;;;16.82;88.86
29121;BME280;16191;49.548;8.658;2023-04-29T13:03:24;100496.28;;;16.46;94.69
29121;BME280;16191;49.548;8.658;2023-04-29T13:05:51;100501.47;;;16.62;100.00
29121;BME280;16191;49.548;8.658;2023-04-29T13:08:20;100492.56;;;16.65;99.59
29121;BME280;16191;49.548;8.658;2023-04-29T13:10:47;100500.66;;;16.03;100.00